»·PEaware :: N923A KSMX-KBFL

N923A :: KSMX-KBFL

FLIGHT INFORMATION

Flight Status: Arrived
Operator: Privately registered:
United States
More flights under this callsign
Pilot: Padraig S. (14196)
Aircraft: CESSNA 172 SKYHAWK
(C172)
More flights by this aircraft type
Origin: KSMX Santa Maria Pub/Capt Hancock
United States
Destination: KBFL Meadows
United States
More flights between these airports :: More routes between these airports
Route: DCT
File this flight plan on PilotEdge
Remarks: CAT-05
Altitude:
(Current/Filed)
5,500ft
Speed:
(Current/Filed)
105kts
Departed: 31-Jan-19 03:37 PM
Arrived: 31-Jan-19 04:24 PM
Distance/Time
Traveled:
76nm/0:47
Distance/Time
To Go:
Arrived

Flight Plot

Page will automatically refresh every two minutes.


Map Options




Map Legend


Flown Route
Filed Route
Departure Airport
Arrival Airport
Navaid (VOR, NDB)
Fix

Horizontal Profiles

Position Reports

Time Latitude Longitude Heading Altitude Ground
Speed
31-Jan-19 15:24 34.895846 -120.445232 314 265ft 0kts
31-Jan-19 15:25 34.895846 -120.445232 314 265ft 0kts
31-Jan-19 15:26 34.895846 -120.445232 314 265ft 0kts
31-Jan-19 15:27 34.895846 -120.445232 314 265ft 0kts
31-Jan-19 15:28 34.895846 -120.445232 314 265ft 0kts
31-Jan-19 15:29 34.895846 -120.445232 314 265ft 0kts
31-Jan-19 15:30 34.895846 -120.445232 314 265ft 0kts
31-Jan-19 15:31 34.895854 -120.445243 313 265ft 1kts
31-Jan-19 15:32 34.894836 -120.445122 228 265ft 5kts
31-Jan-19 15:33 34.893463 -120.444916 261 265ft 0kts
31-Jan-19 15:34 34.893411 -120.445098 239 265ft 3kts
31-Jan-19 15:35 34.892867 -120.445756 285 265ft 12kts
31-Jan-19 15:36 34.904206 -120.458298 320 760ft 73kts
31-Jan-19 15:37 34.911652 -120.448898 125 1543ft 93kts
31-Jan-19 15:38 34.909182 -120.420045 72 2362ft 85kts
31-Jan-19 15:39 34.916260 -120.392630 65 3140ft 86kts
31-Jan-19 15:40 34.924744 -120.365749 58 3928ft 85kts
31-Jan-19 15:42 34.936374 -120.339846 55 4646ft 90kts
31-Jan-19 15:43 34.947427 -120.313789 56 5439ft 83kts
31-Jan-19 15:44 34.960097 -120.282552 59 5499ft 110kts
31-Jan-19 15:45 34.973493 -120.248698 59 5498ft 111kts
31-Jan-19 15:46 34.986583 -120.215435 59 5498ft 105kts
31-Jan-19 15:47 34.999836 -120.181791 59 5498ft 112kts
31-Jan-19 15:48 35.013248 -120.147611 59 5498ft 111kts
31-Jan-19 15:49 35.026524 -120.113764 59 5498ft 110kts
31-Jan-19 15:50 35.039765 -120.079971 59 5517ft 110kts
31-Jan-19 15:51 35.052981 -120.046213 59 5517ft 110kts
31-Jan-19 15:52 35.066266 -120.012238 59 5517ft 110kts
31-Jan-19 15:53 35.079579 -119.978165 59 5517ft 112kts
31-Jan-19 15:54 35.090609 -119.950092 68 5513ft 115kts
31-Jan-19 15:55 35.101527 -119.921957 68 5511ft 118kts
31-Jan-19 15:56 35.115691 -119.885549 68 5510ft 118kts
31-Jan-19 15:57 35.129817 -119.849232 68 5510ft 118kts
31-Jan-19 15:57 35.141583 -119.818961 68 5510ft 118kts
31-Jan-19 15:59 35.158019 -119.776629 68 5510ft 118kts
31-Jan-19 16:00 35.171834 -119.741006 68 5510ft 118kts
31-Jan-19 16:01 35.185912 -119.704666 68 5510ft 118kts
31-Jan-19 16:01 35.197173 -119.675568 68 5510ft 118kts
31-Jan-19 16:02 35.209785 -119.642914 69 5231ft 123kts
31-Jan-19 16:03 35.223939 -119.606231 69 4720ft 116kts
31-Jan-19 16:05 35.239893 -119.564818 68 4127ft 114kts
31-Jan-19 16:06 35.253440 -119.529653 68 3619ft 113kts
31-Jan-19 16:06 35.262387 -119.506446 68 3498ft 104kts
31-Jan-19 16:07 35.272055 -119.481324 68 3507ft 103kts
31-Jan-19 16:08 35.283492 -119.451566 68 3508ft 103kts
31-Jan-19 16:09 35.295806 -119.419495 68 3507ft 103kts
31-Jan-19 16:10 35.308058 -119.387555 68 3507ft 103kts
31-Jan-19 16:11 35.320335 -119.355518 68 3507ft 103kts
31-Jan-19 16:12 35.332461 -119.323842 69 3509ft 104kts
31-Jan-19 16:13 35.344724 -119.291780 69 3509ft 104kts
31-Jan-19 16:14 35.357031 -119.259567 69 3509ft 104kts
31-Jan-19 16:15 35.369437 -119.227037 69 3397ft 113kts
31-Jan-19 16:16 35.383177 -119.190987 68 2900ft 117kts
31-Jan-19 16:17 35.396910 -119.154929 68 2399ft 115kts
31-Jan-19 16:18 35.410167 -119.119850 68 1893ft 112kts
31-Jan-19 16:19 35.422227 -119.085448 69 1491ft 99kts
31-Jan-19 16:20 35.419022 -119.060102 136 1442ft 79kts
31-Jan-19 16:21 35.412798 -119.042017 40 1231ft 81kts
31-Jan-19 16:22 35.430930 -119.052730 316 525ft 66kts
31-Jan-19 16:23 35.436335 -119.057539 76 493ft 0kts
31-Jan-19 16:24 35.434790 -119.055155 136 492ft 19kts
31-Jan-19 16:25 35.431354 -119.050230 48 494ft 8kts
31-Jan-19 16:26 35.431571 -119.048526 315 496ft 0kts

Navigation Log

Ident Type
Flight plan parsing failed, navigation log unavailable